Terminal Aerodrome Forecast
Issued by NWS

Home | Current Version | Previous Version | Text Only | Print | Product List | Glossary On
Versions: 1 2 3 4 5 6 7 8 9 10 11 12 13 14 15 16 17 18 19 20
000
FTUS46 KHNX 230532
TAFMER
TAF
KMER 230532Z 2306/2406 VRB03KT 5SM BR BKN018
      TEMPO 2306/2308 4SM BR BKN015
     FM230800 VRB03KT 2SM BR OVC005
      TEMPO 2311/2315 1/2SM FG VV002
     FM232100 VRB03KT 4SM BR OVC007
     FM240000 VRB03KT 6SM BR SCT010 BKN020=

USA.gov is the U.S. government's official web portal to all federal, state and local government web resources and services.